createdAt,value
2019-05-16T00:00:52.939Z,2.20
2019-05-16T00:03:22.937Z,1.37
2019-05-16T00:05:54.625Z,2.60
2019-05-16T00:08:24.796Z,2.10
2019-05-16T00:10:54.825Z,2.43
2019-05-16T00:13:24.843Z,3.03
2019-05-16T00:15:54.809Z,2.23
2019-05-16T00:18:24.886Z,5.87
2019-05-16T00:20:54.978Z,1.10
2019-05-16T00:23:24.961Z,1.00
2019-05-16T00:25:54.991Z,4.57
2019-05-16T00:28:25.084Z,2.03
2019-05-16T00:30:55.049Z,2.27
2019-05-16T00:33:25.065Z,1.83
2019-05-16T00:36:02.515Z,1.90
2019-05-16T00:38:27.758Z,2.30
2019-05-16T00:40:59.110Z,3.90
2019-05-16T00:43:29.478Z,2.13
2019-05-16T00:45:59.469Z,2.80
2019-05-16T00:48:29.505Z,4.77
2019-05-16T00:50:59.469Z,2.10
2019-05-16T00:53:29.512Z,1.10
2019-05-16T00:56:00.084Z,3.67
2019-05-16T00:58:30.829Z,1.60
2019-05-16T01:01:00.789Z,1.60
2019-05-16T01:03:30.860Z,1.57
2019-05-16T01:06:00.864Z,1.90
2019-05-16T01:08:30.919Z,2.90
2019-05-16T01:11:01.236Z,4.23
2019-05-16T01:13:31.240Z,2.10
2019-05-16T01:16:01.210Z,1.13
2019-05-16T01:18:31.197Z,3.30
2019-05-16T01:21:01.200Z,4.53
2019-05-16T01:23:31.201Z,1.87
2019-05-16T01:26:01.175Z,3.67
2019-05-16T01:28:31.163Z,1.70
2019-05-16T01:31:01.130Z,1.37
2019-05-16T01:33:31.121Z,3.07
2019-05-16T01:36:01.105Z,2.87
2019-05-16T01:38:31.231Z,1.87
2019-05-16T01:41:01.185Z,5.03
2019-05-16T01:43:31.160Z,2.13
2019-05-16T01:46:01.130Z,0.80
2019-05-16T01:48:31.127Z,1.80
2019-05-16T01:51:01.117Z,2.67
2019-05-16T01:53:31.257Z,2.77
2019-05-16T01:56:01.277Z,1.43
2019-05-16T01:58:31.260Z,1.13
2019-05-16T02:01:11.913Z,2.87
2019-05-16T02:03:33.322Z,1.27
2019-05-16T02:06:03.298Z,2.57
2019-05-16T02:08:33.290Z,1.37
2019-05-16T02:11:03.244Z,4.10
2019-05-16T02:13:33.309Z,1.00
2019-05-16T02:16:03.305Z,1.23
2019-05-16T02:18:33.296Z,5.37
2019-05-16T02:21:11.244Z,2.90
2019-05-16T02:27:20.860Z,3.43
2019-05-16T02:29:50.907Z,0.97
2019-05-16T02:32:22.290Z,0.77
2019-05-16T02:34:52.442Z,0.90
2019-05-16T02:37:29.161Z,0.70
2019-05-16T02:39:54.488Z,1.30
2019-05-16T02:42:24.917Z,4.53
2019-05-16T02:44:54.990Z,1.00
2019-05-16T02:47:24.948Z,1.60
2019-05-16T02:49:55.016Z,2.30
2019-05-16T02:52:24.983Z,0.60
2019-05-16T02:54:55.041Z,0.53
2019-05-16T02:57:25.002Z,1.13
2019-05-16T02:59:55.095Z,2.43
2019-05-16T03:02:25.094Z,1.33
2019-05-16T03:04:55.206Z,1.53
2019-05-16T03:07:37.723Z,2.37
2019-05-16T03:10:01.177Z,1.10
2019-05-16T03:12:31.135Z,1.77
2019-05-16T03:15:02.675Z,2.50
2019-05-16T03:17:35.941Z,1.33
2019-05-16T03:20:06.586Z,1.13
2019-05-16T03:22:40.610Z,0.67
2019-05-16T03:25:11.518Z,2.60
2019-05-16T03:27:41.695Z,3.20
2019-05-16T03:30:15.798Z,1.37
2019-05-16T03:32:45.791Z,1.30
2019-05-16T03:35:16.902Z,1.50
2019-05-16T03:37:59.349Z,3.17
2019-05-16T03:40:24.973Z,0.60
2019-05-16T03:42:54.977Z,2.47
2019-05-16T03:45:24.979Z,2.67
2019-05-16T03:47:54.961Z,0.90
2019-05-16T03:50:24.939Z,2.60
2019-05-16T03:52:54.924Z,0.90
2019-05-16T03:55:24.938Z,6.67
2019-05-16T03:57:54.943Z,0.97
2019-05-16T04:00:55.352Z,1.07
2019-05-16T04:03:28.624Z,0.73
2019-05-16T04:06:00.794Z,1.27
2019-05-16T04:08:31.010Z,0.80
2019-05-16T04:11:01.690Z,2.77
2019-05-16T04:13:32.224Z,1.33
2019-05-16T04:16:02.249Z,3.67
2019-05-16T04:18:32.339Z,0.70
2019-05-16T04:21:02.410Z,2.80
2019-05-16T04:23:32.387Z,0.80
2019-05-16T04:26:02.395Z,1.70
2019-05-16T04:28:32.433Z,0.67
2019-05-16T04:31:02.521Z,2.07
2019-05-16T04:33:32.496Z,1.20
2019-05-16T04:36:02.546Z,1.50
2019-05-16T04:38:40.723Z,0.90
2019-05-16T04:41:04.215Z,1.13
2019-05-16T04:43:34.198Z,0.87
2019-05-16T04:46:04.297Z,0.80
2019-05-16T04:48:34.287Z,1.10
2019-05-16T04:51:04.258Z,5.37
2019-05-16T04:53:34.262Z,1.00
2019-05-16T04:56:04.228Z,2.97
2019-05-16T04:58:34.229Z,2.37
2019-05-16T05:01:04.193Z,1.77
2019-05-16T05:03:34.174Z,0.87
2019-05-16T05:06:04.199Z,1.50
2019-05-16T05:08:49.357Z,1.63
2019-05-16T05:11:05.874Z,1.73
2019-05-16T05:13:35.854Z,1.40
2019-05-16T05:16:05.826Z,1.93
2019-05-16T05:18:35.807Z,1.80
2019-05-16T05:21:05.984Z,1.07
2019-05-16T05:23:36.013Z,1.30
2019-05-16T05:26:05.969Z,1.03
2019-05-16T05:28:35.987Z,0.63
2019-05-16T05:31:05.950Z,3.13
2019-05-16T05:33:35.945Z,2.30
2019-05-16T05:36:05.950Z,2.30
2019-05-16T05:38:35.949Z,1.43
2019-05-16T05:41:05.897Z,2.00
2019-05-16T05:43:35.931Z,2.57
2019-05-16T05:46:05.917Z,3.47
2019-05-16T05:48:35.927Z,1.67
2019-05-16T05:51:05.898Z,4.20
2019-05-16T05:53:35.893Z,1.17
2019-05-16T05:56:05.924Z,0.97
2019-05-16T05:58:36.285Z,0.70
2019-05-16T06:01:06.246Z,1.23
2019-05-16T06:03:36.242Z,1.30
2019-05-16T06:06:06.201Z,1.30
2019-05-16T06:08:36.213Z,1.90
2019-05-16T06:11:06.184Z,1.87
2019-05-16T06:13:36.165Z,1.13
2019-05-16T06:16:06.169Z,1.30
2019-05-16T06:18:36.158Z,1.23
2019-05-16T06:21:06.165Z,0.80
2019-05-16T06:23:36.172Z,1.00
2019-05-16T06:26:06.163Z,1.60
2019-05-16T06:28:36.169Z,0.73
2019-05-16T06:31:06.172Z,2.63
2019-05-16T06:33:36.161Z,0.70
2019-05-16T06:36:06.247Z,1.97
2019-05-16T06:38:36.252Z,1.87
2019-05-16T06:41:06.229Z,2.03
2019-05-16T06:43:36.247Z,2.73
2019-05-16T06:46:06.230Z,1.13
2019-05-16T06:48:36.224Z,0.50
2019-05-16T06:51:06.201Z,1.23
2019-05-16T06:53:36.223Z,2.63
2019-05-16T06:56:06.172Z,2.07
2019-05-16T06:58:45.688Z,3.53
2019-05-16T07:01:10.387Z,1.70
2019-05-16T07:03:40.092Z,2.83
2019-05-16T07:06:26.245Z,0.70
2019-05-16T07:08:41.972Z,1.33
2019-05-16T07:11:11.947Z,0.60
2019-05-16T07:13:41.951Z,0.73
2019-05-16T07:16:11.967Z,1.97
2019-05-16T07:18:41.964Z,1.00
2019-05-16T07:21:11.952Z,5.50
2019-05-16T07:23:41.967Z,2.67
2019-05-16T07:26:11.939Z,0.77
2019-05-16T07:28:41.902Z,3.17
2019-05-16T07:31:17.868Z,1.37
2019-05-16T07:33:43.545Z,1.33
2019-05-16T07:36:15.899Z,1.43
2019-05-16T07:38:45.378Z,0.70
2019-05-16T07:41:15.394Z,1.80
2019-05-16T07:43:45.352Z,2.60
2019-05-16T07:46:15.342Z,1.17
2019-05-16T07:48:45.307Z,2.30
2019-05-16T07:51:15.298Z,2.60
2019-05-16T07:53:45.261Z,2.20
2019-05-16T07:56:15.241Z,2.13
2019-05-16T07:58:45.193Z,1.43
2019-05-16T08:01:15.188Z,1.93
2019-05-16T08:03:45.127Z,1.87
2019-05-16T08:06:15.124Z,0.80
2019-05-16T08:08:45.096Z,2.80
2019-05-16T08:11:15.072Z,1.90
2019-05-16T08:13:45.076Z,2.60
2019-05-16T08:16:15.073Z,1.20
2019-05-16T08:18:45.378Z,1.70
2019-05-16T08:21:16.952Z,1.10
2019-05-16T08:23:47.124Z,2.70
2019-05-16T08:26:21.519Z,2.10
2019-05-16T08:28:50.288Z,3.00
2019-05-16T08:31:21.364Z,1.93
2019-05-16T08:33:54.761Z,2.37
2019-05-16T08:36:23.389Z,1.60
2019-05-16T08:38:53.377Z,3.63
2019-05-16T08:41:23.407Z,1.30
2019-05-16T08:43:53.683Z,1.20
2019-05-16T08:46:23.741Z,2.10
2019-05-16T08:48:54.400Z,4.87
2019-05-16T08:51:24.478Z,2.07
2019-05-16T08:53:54.443Z,2.13
2019-05-16T08:56:24.493Z,5.97
2019-05-16T08:58:54.591Z,2.30
2019-05-16T09:01:24.622Z,1.43
2019-05-16T09:03:54.587Z,3.23
2019-05-16T09:06:24.644Z,2.20
2019-05-16T09:08:58.645Z,1.67
2019-05-16T09:11:35.036Z,1.67
2019-05-16T09:13:58.033Z,2.50
2019-05-16T09:16:28.049Z,1.40
2019-05-16T09:18:58.065Z,6.43
2019-05-16T09:21:28.090Z,2.27
2019-05-16T09:23:58.128Z,3.57
2019-05-16T09:26:28.441Z,2.03
2019-05-16T09:28:58.453Z,2.27
2019-05-16T09:31:28.559Z,1.30
2019-05-16T09:33:58.551Z,1.80
2019-05-16T09:36:28.573Z,1.20
2019-05-16T09:38:58.502Z,1.83
2019-05-16T09:41:46.264Z,2.90
2019-05-16T09:44:00.286Z,2.53
2019-05-16T09:46:30.285Z,1.83
2019-05-16T09:49:15.710Z,1.80
2019-05-16T09:51:32.002Z,2.80
2019-05-16T09:54:02.099Z,3.00
2019-05-16T09:56:32.073Z,2.60
2019-05-16T09:59:02.083Z,2.70
2019-05-16T10:01:32.075Z,2.90
2019-05-16T10:04:02.100Z,3.07
2019-05-16T10:06:32.100Z,4.70
2019-05-16T10:09:02.111Z,2.80
2019-05-16T10:11:32.235Z,2.37
2019-05-16T10:14:02.161Z,2.23
2019-05-16T10:16:32.302Z,2.97
2019-05-16T10:19:02.325Z,3.00
2019-05-16T10:21:32.340Z,6.00
2019-05-16T10:24:02.313Z,2.63
2019-05-16T10:26:32.316Z,2.00
2019-05-16T10:29:02.297Z,3.90
2019-05-16T10:31:44.892Z,6.00
2019-05-16T10:34:04.090Z,3.03
2019-05-16T10:36:37.301Z,3.67
2019-05-16T10:39:07.910Z,2.50
2019-05-16T10:41:38.034Z,2.90
2019-05-16T10:44:08.043Z,2.07
2019-05-16T10:46:38.010Z,4.07
2019-05-16T10:49:07.999Z,2.50
2019-05-16T10:51:38.015Z,3.67
2019-05-16T10:54:13.795Z,2.47
2019-05-16T10:56:40.714Z,4.00
2019-05-16T10:59:50.349Z,1.80
2019-05-16T11:01:42.415Z,2.70
2019-05-16T11:04:27.929Z,2.23
2019-05-16T11:06:46.487Z,2.47
2019-05-16T11:09:17.362Z,2.90
2019-05-16T11:11:47.818Z,2.33
2019-05-16T11:14:17.899Z,1.20
2019-05-16T11:16:47.977Z,6.77
2019-05-16T11:19:24.205Z,2.63
2019-05-16T11:21:49.731Z,2.77
2019-05-16T11:24:19.784Z,1.93
2019-05-16T11:26:49.791Z,3.37
2019-05-16T11:29:19.839Z,4.13
2019-05-16T11:31:49.810Z,2.80
2019-05-16T11:34:19.828Z,3.43
2019-05-16T11:36:49.845Z,2.67
2019-05-16T11:39:20.193Z,2.50
2019-05-16T11:41:50.266Z,5.20
2019-05-16T11:44:20.275Z,4.80
2019-05-16T11:46:50.320Z,3.40
2019-05-16T11:49:20.356Z,1.90
2019-05-16T11:51:50.332Z,2.37
2019-05-16T11:54:20.360Z,2.60
2019-05-16T11:56:50.341Z,3.13
2019-05-16T11:59:20.354Z,4.47
2019-05-16T12:01:50.394Z,4.13
2019-05-16T12:04:20.398Z,3.10
2019-05-16T12:06:50.382Z,3.17
2019-05-16T12:09:20.386Z,2.10
2019-05-16T12:11:59.702Z,4.30
2019-05-16T12:14:22.217Z,2.97
2019-05-16T12:16:52.221Z,8.03
2019-05-16T12:19:22.256Z,2.37
2019-05-16T12:21:52.256Z,3.97
2019-05-16T12:24:33.229Z,5.30
2019-05-16T12:26:54.012Z,4.33
2019-05-16T12:29:24.033Z,3.63
2019-05-16T12:31:58.624Z,4.47
2019-05-16T12:34:25.703Z,3.03
2019-05-16T12:36:56.579Z,3.53
2019-05-16T12:39:26.934Z,4.40
2019-05-16T12:41:59.146Z,3.23
2019-05-16T12:44:28.680Z,4.43
2019-05-16T12:46:58.727Z,4.23
2019-05-16T12:49:28.827Z,5.83
2019-05-16T12:51:59.326Z,5.03
2019-05-16T12:54:29.317Z,5.53
2019-05-16T12:56:59.333Z,4.03
2019-05-16T12:59:29.319Z,9.40
2019-05-16T13:01:59.280Z,4.60
2019-05-16T13:04:29.293Z,2.73
2019-05-16T13:06:59.303Z,2.07
2019-05-16T13:09:29.294Z,4.53
2019-05-16T13:11:59.296Z,4.70
2019-05-16T13:14:29.288Z,4.17
2019-05-16T13:16:59.284Z,7.40
2019-05-16T13:19:33.411Z,3.93
2019-05-16T13:22:01.036Z,5.93
2019-05-16T13:24:30.987Z,7.97
2019-05-16T13:27:01.099Z,4.83
2019-05-16T13:29:31.089Z,6.37
2019-05-16T13:32:01.123Z,4.77
2019-05-16T13:34:31.088Z,6.33
2019-05-16T13:37:01.089Z,2.80
2019-05-16T13:39:31.050Z,4.53
2019-05-16T13:42:01.047Z,6.60
2019-05-16T13:44:31.030Z,2.90
2019-05-16T13:47:01.018Z,3.03
2019-05-16T13:49:31.012Z,5.53
2019-05-16T13:52:01.008Z,3.50
2019-05-16T13:54:30.973Z,3.73
2019-05-16T13:57:01.040Z,3.17
2019-05-16T13:59:31.115Z,2.50
2019-05-16T14:02:01.109Z,5.23
2019-05-16T14:04:31.090Z,8.27
2019-05-16T14:07:01.095Z,4.23
2019-05-16T14:09:31.074Z,2.50
2019-05-16T14:12:03.209Z,6.27
2019-05-16T14:14:38.075Z,4.17
2019-05-16T14:17:11.933Z,8.30
2019-05-16T14:19:37.565Z,6.80
2019-05-16T14:22:07.855Z,11.70
2019-05-16T14:24:37.748Z,3.43
2019-05-16T14:27:07.762Z,5.93
2019-05-16T14:29:37.973Z,4.63
2019-05-16T14:32:10.295Z,8.87
2019-05-16T14:34:39.675Z,5.33
2019-05-16T14:37:09.688Z,7.90
2019-05-16T14:39:39.673Z,5.83
2019-05-16T14:42:09.833Z,4.20
2019-05-16T14:44:59.770Z,7.00
2019-05-16T14:47:11.753Z,5.37
2019-05-16T14:49:41.819Z,6.10
2019-05-16T14:52:11.815Z,3.97
2019-05-16T14:54:41.818Z,6.40
2019-05-16T14:57:12.012Z,2.80
2019-05-16T14:59:42.051Z,4.20
2019-05-16T15:02:12.055Z,5.40
2019-05-16T15:04:42.031Z,6.27
2019-05-16T15:07:12.051Z,5.77
2019-05-16T15:09:42.055Z,10.90
2019-05-16T15:12:12.147Z,7.13
2019-05-16T15:14:42.152Z,10.47
2019-05-16T15:17:12.165Z,5.23
2019-05-16T15:19:42.154Z,4.53
2019-05-16T15:22:12.270Z,6.27
2019-05-16T15:24:42.247Z,4.10
2019-05-16T15:27:16.858Z,6.60
2019-05-16T15:29:48.160Z,7.13
2019-05-16T15:32:17.979Z,8.03
2019-05-16T15:34:48.239Z,5.97
2019-05-16T15:37:18.204Z,7.83
2019-05-16T15:39:48.211Z,8.20
2019-05-16T15:42:18.354Z,10.13
2019-05-16T15:44:48.345Z,5.67
2019-05-16T15:47:18.383Z,8.30
2019-05-16T15:49:48.353Z,4.13
2019-05-16T15:52:18.467Z,9.53
2019-05-16T15:54:49.229Z,6.40
2019-05-16T15:57:19.354Z,9.60
2019-05-16T15:59:49.340Z,6.40
2019-05-16T16:02:19.343Z,8.93
2019-05-16T16:04:49.339Z,10.97
2019-05-16T16:07:19.400Z,8.60
2019-05-16T16:09:49.463Z,5.70
2019-05-16T16:12:19.483Z,7.77
2019-05-16T16:14:49.468Z,13.03
2019-05-16T16:17:19.541Z,6.50
2019-05-16T16:19:49.554Z,6.50
2019-05-16T16:22:19.550Z,3.97
2019-05-16T16:24:49.550Z,6.60
2019-05-16T16:27:19.541Z,4.03
2019-05-16T16:29:49.561Z,8.07
2019-05-16T16:32:19.562Z,6.00
2019-05-16T16:34:49.562Z,8.13
2019-05-16T16:37:19.524Z,5.53
2019-05-16T16:39:49.548Z,3.90
2019-05-16T16:42:19.538Z,9.70
2019-05-16T16:44:50.628Z,5.00
2019-05-16T16:47:20.593Z,6.10
2019-05-16T16:49:50.686Z,8.63
2019-05-16T16:52:20.724Z,5.67
2019-05-16T16:54:50.744Z,6.73
2019-05-16T16:57:20.722Z,5.53
2019-05-16T16:59:50.764Z,4.23
2019-05-16T17:02:20.750Z,6.23
2019-05-16T17:04:51.973Z,6.50
2019-05-16T17:07:22.024Z,4.70
2019-05-16T17:09:52.047Z,6.83
2019-05-16T17:12:22.047Z,4.53
2019-05-16T17:14:52.052Z,6.83
2019-05-16T17:17:22.058Z,5.30
2019-05-16T17:19:52.126Z,7.90
2019-05-16T17:22:22.137Z,5.63
2019-05-16T17:24:52.155Z,7.73
2019-05-16T17:27:22.139Z,4.43
2019-05-16T17:29:52.230Z,5.47
2019-05-16T17:32:22.223Z,9.03
2019-05-16T17:34:52.337Z,5.27
2019-05-16T17:37:22.316Z,6.97
2019-05-16T17:39:52.321Z,8.30
2019-05-16T17:42:22.310Z,7.63
2019-05-16T17:44:52.417Z,7.27
2019-05-16T17:47:22.427Z,5.80
2019-05-16T17:49:52.433Z,7.50
2019-05-16T17:52:22.400Z,6.23
2019-05-16T17:54:53.390Z,4.40
2019-05-16T17:57:23.471Z,5.73
2019-05-16T17:59:53.478Z,4.77
2019-05-16T18:02:23.451Z,8.43
2019-05-16T18:04:53.449Z,4.63
2019-05-16T18:07:23.462Z,5.30
2019-05-16T18:09:53.549Z,3.10
2019-05-16T18:12:23.566Z,5.03
2019-05-16T18:14:53.577Z,4.33
2019-05-16T18:17:23.556Z,5.67
2019-05-16T18:19:53.596Z,5.67
2019-05-16T18:22:23.585Z,3.40
2019-05-16T18:24:53.602Z,4.47
2019-05-16T18:27:23.593Z,4.37
2019-05-16T18:29:53.595Z,3.90
2019-05-16T18:32:23.606Z,5.67
2019-05-16T18:34:53.665Z,6.97
2019-05-16T18:37:23.732Z,6.23
2019-05-16T18:39:53.748Z,5.43
2019-05-16T18:42:23.801Z,4.53
2019-05-16T18:44:53.816Z,3.57
2019-05-16T18:47:23.822Z,9.17
2019-05-16T18:49:53.855Z,6.37
2019-05-16T18:52:23.870Z,6.27
2019-05-16T18:54:53.876Z,3.63
2019-05-16T18:57:23.870Z,5.27
2019-05-16T18:59:53.858Z,5.87
2019-05-16T19:02:23.949Z,4.93
2019-05-16T19:04:53.951Z,7.13
2019-05-16T19:07:23.934Z,4.70
2019-05-16T19:09:53.927Z,9.57
2019-05-16T19:12:26.193Z,6.97
2019-05-16T19:14:57.097Z,5.13
2019-05-16T19:17:27.675Z,4.67
2019-05-16T19:19:57.859Z,5.33
2019-05-16T19:22:27.883Z,6.70
2019-05-16T19:24:57.915Z,5.97
2019-05-16T19:27:27.912Z,4.77
2019-05-16T19:29:57.880Z,6.77
2019-05-16T19:32:27.881Z,4.53
2019-05-16T19:34:57.868Z,5.93
2019-05-16T19:37:27.955Z,7.77
2019-05-16T19:39:58.003Z,3.60
2019-05-16T19:42:29.861Z,8.53
2019-05-16T19:44:59.701Z,7.47
2019-05-16T19:47:36.904Z,3.50
2019-05-16T19:50:01.423Z,4.80
2019-05-16T19:52:31.434Z,4.17
2019-05-16T19:55:01.413Z,4.67
2019-05-16T19:57:31.435Z,5.50
2019-05-16T20:00:01.441Z,6.00
2019-05-16T20:02:31.482Z,3.43
2019-05-16T20:05:01.489Z,5.40
2019-05-16T20:07:31.496Z,5.50
2019-05-16T20:10:01.486Z,5.07
2019-05-16T20:12:31.546Z,3.77
2019-05-16T20:15:08.072Z,4.37
2019-05-16T20:17:33.375Z,4.07
2019-05-16T20:20:03.412Z,3.13
2019-05-16T20:22:33.779Z,5.37
2019-05-16T20:25:04.041Z,5.57
2019-05-16T20:27:36.527Z,4.07
2019-05-16T20:30:06.726Z,3.53
2019-05-16T20:32:37.378Z,4.10
2019-05-16T20:35:08.859Z,2.70
2019-05-16T20:37:39.348Z,3.33
2019-05-16T20:40:12.421Z,3.83
2019-05-16T20:42:41.195Z,3.33
2019-05-16T20:45:12.124Z,4.30
2019-05-16T20:47:42.202Z,4.33
2019-05-16T20:50:12.913Z,4.33
2019-05-16T20:52:42.987Z,4.57
2019-05-16T20:55:13.811Z,4.20
2019-05-16T20:57:46.102Z,2.90
2019-05-16T21:00:17.561Z,6.43
2019-05-16T21:02:49.482Z,3.22
2019-05-16T21:05:19.018Z,5.00
2019-05-16T21:07:49.031Z,3.03
2019-05-16T21:10:19.920Z,2.60
2019-05-16T21:12:49.921Z,2.00
2019-05-16T21:15:19.885Z,5.53
2019-05-16T21:17:49.886Z,3.60
2019-05-16T21:20:19.927Z,5.00
2019-05-16T21:22:49.898Z,5.10
2019-05-16T21:25:19.911Z,3.87
2019-05-16T21:27:49.912Z,5.33
2019-05-16T21:30:20.083Z,3.20
2019-05-16T21:32:50.131Z,4.07
2019-05-16T21:35:20.244Z,4.73
2019-05-16T21:37:50.422Z,2.27
2019-05-16T21:40:20.512Z,2.73
2019-05-16T21:42:50.672Z,1.70
2019-05-16T21:45:20.737Z,2.03
2019-05-16T21:47:50.711Z,3.60
2019-05-16T21:50:20.788Z,4.40
2019-05-16T21:52:50.833Z,5.60
2019-05-16T21:55:20.834Z,2.40
2019-05-16T21:57:50.893Z,4.20
2019-05-16T22:00:27.332Z,1.70
2019-05-16T22:02:57.447Z,1.70
2019-05-16T22:05:27.395Z,1.87
2019-05-16T22:07:57.526Z,1.50
2019-05-16T22:10:27.843Z,1.90
2019-05-16T22:12:57.904Z,3.00
2019-05-16T22:15:28.152Z,2.20
2019-05-16T22:17:58.402Z,1.87
2019-05-16T22:20:28.599Z,1.43
2019-05-16T22:22:58.760Z,3.03
2019-05-16T22:25:28.837Z,2.47
2019-05-16T22:27:58.834Z,1.50
2019-05-16T22:30:28.844Z,1.73
2019-05-16T22:32:58.812Z,1.30
2019-05-16T22:35:28.826Z,1.80
2019-05-16T22:37:59.515Z,1.23
2019-05-16T22:40:29.630Z,1.70
2019-05-16T22:42:59.614Z,2.00
2019-05-16T22:45:29.601Z,1.37
2019-05-16T22:47:59.595Z,1.33
2019-05-16T22:50:29.584Z,1.77
2019-05-16T22:52:59.545Z,2.10
2019-05-16T22:55:29.539Z,3.00
2019-05-16T22:57:59.503Z,2.30
2019-05-16T23:00:31.200Z,2.93
2019-05-16T23:03:01.183Z,2.37
2019-05-16T23:05:31.182Z,2.73
2019-05-16T23:08:05.800Z,2.43
2019-05-16T23:10:32.916Z,2.30
2019-05-16T23:13:02.900Z,2.37
2019-05-16T23:15:32.894Z,2.53
2019-05-16T23:18:02.874Z,2.00
2019-05-16T23:20:32.898Z,2.27
2019-05-16T23:23:02.869Z,3.33
2019-05-16T23:25:32.914Z,3.90
2019-05-16T23:28:02.881Z,3.93
2019-05-16T23:30:32.872Z,2.20
2019-05-16T23:33:02.831Z,2.70
2019-05-16T23:35:32.834Z,2.37
2019-05-16T23:38:14.680Z,2.20
2019-05-16T23:40:34.482Z,2.30
2019-05-16T23:43:04.473Z,3.27
2019-05-16T23:45:34.466Z,2.60
2019-05-16T23:48:09.495Z,3.53
2019-05-16T23:50:36.729Z,3.77
2019-05-16T23:53:07.559Z,2.10
2019-05-16T23:55:37.673Z,2.60
2019-05-16T23:58:07.627Z,2.47
